Time;durP1;ratioP1;P1;durP2;ratioP2;P2;SDS_P1;SDS_P2;PMS_P1;PMS_P2;Temp;Humidity;BMP_temperature;BMP_pressure;BME280_temperature;BME280_humidity;BME280_pressure;Samples;Min_cycle;Max_cycle;Signal;HPM_P1;HPM_P2
2023/08/13 00:00:56;;;;;;;;;25.60;23.80;;;;;19.05;42.64;99786.72;5090433;27;8958;-72
2023/08/13 00:03:45;;;;;;;;;28.20;26.20;;;;;19.03;43.30;99784.13;5110051;28;8853;-73
2023/08/13 00:06:14;;;;;;;;;23.00;22.20;;;;;19.02;42.62;99792.19;5092961;28;8899;-73
2023/08/13 00:08:43;;;;;;;;;21.00;20.80;;;;;19.01;42.22;99786.03;5109735;28;8871;-73
2023/08/13 00:11:12;;;;;;;;;20.00;18.80;;;;;18.96;41.84;99782.72;5109656;28;8997;-73
2023/08/13 00:13:43;;;;;;;;;24.00;23.40;;;;;18.96;42.39;99792.53;5109739;28;8949;-74
2023/08/13 00:16:12;;;;;;;;;20.20;20.20;;;;;18.92;42.77;99792.69;5104400;28;8882;-75
2023/08/13 00:18:41;;;;;;;;;25.20;24.80;;;;;18.90;43.01;99780.38;5058020;28;8858;-75
2023/08/13 00:21:09;;;;;;;;;24.20;21.20;;;;;18.87;42.44;99789.38;5050878;28;8882;-73
2023/08/13 00:23:38;;;;;;;;;24.80;24.80;;;;;18.87;43.65;99785.88;5050887;28;8854;-73
2023/08/13 00:26:07;;;;;;;;;20.60;20.60;;;;;18.81;43.74;99779.06;5067600;28;8850;-74
2023/08/13 00:28:36;;;;;;;;;21.00;21.00;;;;;18.80;44.09;99781.78;5050716;28;9607;-74
2023/08/13 00:31:06;;;;;;;;;24.40;23.60;;;;;18.80;44.09;99779.13;5067720;28;8849;-74
2023/08/13 00:33:35;;;;;;;;;21.60;21.60;;;;;18.77;44.08;99777.47;4998008;28;8919;-71
2023/08/13 00:36:05;;;;;;;;;24.80;23.20;;;;;18.74;44.13;99781.16;5054838;28;8861;-73
2023/08/13 00:38:34;;;;;;;;;24.60;21.80;;;;;18.70;43.85;99778.72;5050229;28;9725;-72
2023/08/13 00:41:02;;;;;;;;;20.80;20.80;;;;;18.67;44.21;99781.53;5050459;28;8861;-75
2023/08/13 00:43:32;;;;;;;;;20.20;20.00;;;;;18.62;43.77;99770.25;5066845;28;8862;-74
2023/08/13 00:46:01;;;;;;;;;17.00;16.40;;;;;18.58;43.78;99777.53;5033497;28;8876;-72
2023/08/13 00:48:32;;;;;;;;;20.00;19.60;;;;;18.54;44.26;99774.16;5046740;28;8848;-74
2023/08/13 00:51:01;;;;;;;;;20.80;19.60;;;;;18.51;44.33;99768.97;5085702;28;9009;-73
2023/08/13 00:53:30;;;;;;;;;20.60;20.60;;;;;18.48;44.33;99768.31;5070749;28;8874;-74
2023/08/13 00:56:00;;;;;;;;;20.20;18.40;;;;;18.46;44.45;99768.38;5087854;28;8864;-73
2023/08/13 00:58:29;;;;;;;;;21.40;20.00;;;;;18.45;44.28;99768.44;5087798;28;8839;-73
2023/08/13 01:00:59;;;;;;;;;22.40;21.40;;;;;18.41;44.18;99759.75;5088207;28;8874;-71
2023/08/13 01:15:21;;;;;;;;;22.00;22.00;;;;;17.83;45.14;99758.09;5098151;27;1363214;-76
2023/08/13 01:17:53;;;;;;;;;21.80;20.20;;;;;18.09;44.46;99756.03;5113387;28;8853;-76
2023/08/13 01:20:25;;;;;;;;;20.00;19.80;;;;;18.14;44.54;99756.69;5088363;28;8854;-74
2023/08/13 01:22:56;;;;;;;;;19.20;18.80;;;;;18.11;44.25;99757.66;5081172;28;8888;-76
2023/08/13 01:25:26;;;;;;;;;19.80;19.00;;;;;18.09;43.85;99754.22;5088070;28;8845;-75
2023/08/13 01:28:02;;;;;;;;;21.80;21.40;;;;;18.11;44.12;99757.66;5105760;28;8942;-76
2023/08/13 01:30:38;;;;;;;;;20.60;19.20;;;;;18.11;44.59;99760.31;5087529;28;8873;-76
2023/08/13 01:33:10;;;;;;;;;19.60;19.60;;;;;18.08;44.56;99756.94;5087652;28;8926;-77
2023/08/13 01:35:40;;;;;;;;;22.00;22.00;;;;;18.03;44.58;99751.88;5105955;28;9603;-77
2023/08/13 01:38:11;;;;;;;;;21.60;20.60;;;;;18.01;44.02;99756.38;5086953;27;8829;-76
2023/08/13 01:40:40;;;;;;;;;23.20;20.20;;;;;17.92;44.19;99752.34;5062263;28;8838;-76
2023/08/13 01:43:09;;;;;;;;;22.20;21.60;;;;;17.92;44.20;99754.16;5062413;28;8866;-76
2023/08/13 01:45:38;;;;;;;;;24.80;23.20;;;;;17.91;45.39;99761.28;5046007;28;8927;-75
2023/08/13 01:48:08;;;;;;;;;21.60;20.60;;;;;17.88;44.92;99752.59;5062418;28;8854;-75
2023/08/13 01:50:38;;;;;;;;;25.60;22.80;;;;;17.87;45.05;99754.38;5029673;28;8838;-76
2023/08/13 01:53:07;;;;;;;;;23.00;21.80;;;;;17.86;45.25;99759.78;5062532;28;8838;-76
2023/08/13 01:55:37;;;;;;;;;22.80;21.00;;;;;17.80;45.19;99758.25;5072828;28;8855;-75
2023/08/13 01:58:07;;;;;;;;;21.20;20.80;;;;;17.74;45.12;99761.19;5033135;28;8871;-77
2023/08/13 02:00:36;;;;;;;;;22.00;21.40;;;;;17.70;44.93;99746.31;5082848;28;8852;-76
2023/08/13 02:03:05;;;;;;;;;21.40;21.40;;;;;17.60;45.50;99755.69;5052676;28;8859;-74
2023/08/13 02:05:34;;;;;;;;;31.00;28.60;;;;;17.61;45.61;99749.41;5053567;28;8895;-76
2023/08/13 02:08:03;;;;;;;;;26.80;26.00;;;;;17.58;45.89;99748.63;5067870;28;8966;-75
2023/08/13 02:10:32;;;;;;;;;25.20;24.00;;;;;17.58;45.94;99751.28;5065458;28;9661;-76
2023/08/13 02:13:03;;;;;;;;;28.40;27.60;;;;;17.49;46.09;99746.41;5123093;27;8975;-75
2023/08/13 02:15:31;;;;;;;;;24.60;23.60;;;;;17.44;46.47;99745.78;5091357;28;8862;-76
2023/08/13 02:18:00;;;;;;;;;31.00;27.80;;;;;17.54;46.40;99757.69;5069949;28;8884;-75
2023/08/13 02:20:30;;;;;;;;;25.40;24.40;;;;;17.54;46.33;99744.41;5053342;28;8877;-76
2023/08/13 02:22:59;;;;;;;;;23.60;23.60;;;;;17.57;46.23;99751.34;5071448;28;9683;-76
2023/08/13 02:25:28;;;;;;;;;27.40;25.20;;;;;17.54;46.37;99747.06;5087811;28;9646;-76
2023/08/13 02:27:58;;;;;;;;;25.80;23.60;;;;;17.49;46.71;99740.22;5069187;28;8822;-76
2023/08/13 02:30:30;;;;;;;;;27.20;26.20;;;;;17.54;46.38;99744.41;5086642;28;8862;-76
2023/08/13 02:32:59;;;;;;;;;25.20;24.60;;;;;17.56;46.36;99741.66;5086377;28;9010;-75
2023/08/13 02:35:27;;;;;;;;;20.20;19.60;;;;;17.65;46.17;99749.22;5071326;28;9032;-77
2023/08/13 02:37:56;;;;;;;;;24.40;24.40;;;;;17.71;46.22;99746.25;5086917;28;8834;-75
2023/08/13 02:40:25;;;;;;;;;28.20;25.60;;;;;17.78;45.75;99750.34;5086580;28;8868;-76
2023/08/13 02:42:54;;;;;;;;;27.20;24.60;;;;;17.82;45.85;99751.06;5059772;28;8832;-77
2023/08/13 02:45:22;;;;;;;;;23.60;22.40;;;;;17.83;45.70;99747.47;5028033;28;8919;-75
2023/08/13 02:47:53;;;;;;;;;24.60;23.60;;;;;17.84;45.72;99754.53;5028294;28;9792;-74
2023/08/13 02:50:21;;;;;;;;;27.80;26.00;;;;;17.85;45.58;99753.56;5028191;28;8851;-76
2023/08/13 02:52:50;;;;;;;;;25.00;25.00;;;;;17.85;45.34;99758.03;5028751;28;8852;-74
2023/08/13 02:55:19;;;;;;;;;22.20;21.00;;;;;17.84;45.61;99756.31;4996144;28;8989;-74
2023/08/13 02:57:48;;;;;;;;;24.20;23.60;;;;;17.82;45.89;99759.06;5028693;28;8832;-75
2023/08/13 03:00:36;;;;;;;;;19.60;19.60;;;;;17.83;46.10;99757.25;5048791;28;8864;-75
2023/08/13 03:03:07;;;;;;;;;16.00;16.00;;;;;17.85;46.11;99763.34;5048767;28;8842;-75
2023/08/13 03:05:36;;;;;;;;;21.60;19.20;;;;;17.84;46.21;99762.50;5022221;28;8850;-75
2023/08/13 03:08:06;;;;;;;;;28.20;24.40;;;;;17.83;46.35;99760.75;5031373;28;8842;-76
2023/08/13 03:10:34;;;;;;;;;23.40;23.40;;;;;17.81;46.17;99764.44;4982799;28;9032;-76
2023/08/13 03:13:04;;;;;;;;;23.00;23.00;;;;;17.77;45.89;99761.06;5031042;28;8854;-75
2023/08/13 03:15:32;;;;;;;;;21.40;21.00;;;;;17.74;45.77;99777.16;5046813;28;8850;-75
2023/08/13 03:18:02;;;;;;;;;25.80;25.80;;;;;17.72;45.49;99774.59;5048740;28;8891;-75
2023/08/13 03:20:34;;;;;;;;;28.60;28.20;;;;;17.65;45.70;99774.94;5015298;28;8889;-76
2023/08/13 03:23:04;;;;;;;;;25.80;24.40;;;;;17.64;46.25;99770.56;5049859;28;8849;-77
2023/08/13 03:25:33;;;;;;;;;27.20;26.60;;;;;17.63;46.38;99760.84;5050324;28;8991;-78
2023/08/13 03:28:02;;;;;;;;;23.00;22.40;;;;;17.63;46.60;99763.50;5048880;28;8922;-76
2023/08/13 03:30:31;;;;;;;;;30.00;26.60;;;;;17.63;47.13;99774.13;4998643;28;8849;-76
2023/08/13 03:33:00;;;;;;;;;26.20;24.40;;;;;17.57;46.23;99768.19;5048463;28;8881;-77
2023/08/13 03:35:29;;;;;;;;;24.20;23.60;;;;;17.54;46.56;99764.81;5081483;28;8842;-76
2023/08/13 03:37:59;;;;;;;;;23.20;22.00;;;;;17.51;46.59;99756.97;5068719;28;8842;-76
2023/08/13 03:40:28;;;;;;;;;26.60;25.80;;;;;17.48;46.70;99768.59;5068425;28;8973;-75
2023/08/13 03:42:57;;;;;;;;;25.60;24.00;;;;;17.51;46.66;99768.47;5068016;28;8943;-75
2023/08/13 03:45:26;;;;;;;;;28.80;28.00;;;;;17.52;46.44;99766.69;5017358;28;8850;-76
2023/08/13 03:47:59;;;;;;;;;28.20;24.00;;;;;17.54;46.82;99765.66;5035862;28;8838;-75
2023/08/13 03:50:27;;;;;;;;;27.60;24.80;;;;;17.56;46.35;99771.75;5071020;28;8834;-76
2023/08/13 03:52:57;;;;;;;;;23.00;22.40;;;;;17.58;46.49;99771.69;5054807;28;8846;-76
2023/08/13 03:55:27;;;;;;;;;28.20;26.60;;;;;17.61;46.24;99776.88;5069998;28;8960;-74
2023/08/13 03:57:56;;;;;;;;;31.75;30.50;;;;;17.66;46.67;99772.19;5087038;28;8837;-75
2023/08/13 04:00:24;;;;;;;;;32.50;31.25;;;;;17.67;46.89;99771.28;5049532;28;10044;-76
2023/08/13 04:02:55;;;;;;;;;29.60;29.60;;;;;17.71;47.01;99779.97;5033142;28;8916;-76
2023/08/13 04:05:27;;;;;;;;;29.60;28.40;;;;;17.68;46.96;99778.28;5066427;28;8860;-75
2023/08/13 04:07:56;;;;;;;;;30.25;29.25;;;;;17.73;47.13;99776.28;5067019;28;8834;-75
2023/08/13 04:10:24;;;;;;;;;26.00;25.80;;;;;17.75;46.83;99777.09;5069578;28;8904;-75
2023/08/13 04:12:56;;;;;;;;;28.20;26.40;;;;;17.77;46.50;99777.00;5052755;28;8849;-76
2023/08/13 04:15:25;;;;;;;;;24.20;24.20;;;;;17.83;46.71;99781.19;5069443;28;8962;-75
2023/08/13 04:17:54;;;;;;;;;24.60;24.60;;;;;17.90;46.64;99777.31;5086265;28;8881;-76
2023/08/13 04:20:22;;;;;;;;;28.40;26.00;;;;;17.93;46.68;99779.78;5065145;28;8962;-76
2023/08/13 04:22:51;;;;;;;;;34.50;32.00;;;;;18.04;47.06;99782.84;5068426;28;8852;-76
2023/08/13 04:25:20;;;;;;;;;29.00;29.00;;;;;18.12;46.35;99793.13;5069367;28;8885;-75
2023/08/13 04:27:49;;;;;;;;;24.20;24.20;;;;;18.18;46.25;99789.31;5050296;28;8862;-74
2023/08/13 04:30:19;;;;;;;;;28.60;27.00;;;;;18.24;46.48;99789.84;5032864;28;8835;-75
2023/08/13 04:32:53;;;;;;;;;29.60;26.20;;;;;18.34;46.11;99795.59;5047448;28;8857;-75
2023/08/13 04:35:26;;;;;;;;;24.80;23.80;;;;;18.35;46.64;99789.34;5047381;28;8987;-75
2023/08/13 04:37:56;;;;;;;;;32.50;31.25;;;;;18.41;46.44;99796.16;5061380;28;8845;-75
2023/08/13 04:40:25;;;;;;;;;28.50;26.50;;;;;18.45;45.62;99793.25;5047478;28;8844;-75
2023/08/13 04:42:55;;;;;;;;;27.20;26.60;;;;;18.52;45.38;99801.81;5037710;28;8987;-76
2023/08/13 04:45:26;;;;;;;;;25.20;25.20;;;;;18.61;45.29;99798.69;5050045;28;8896;-76
2023/08/13 04:47:55;;;;;;;;;32.20;28.60;;;;;18.69;45.11;99800.97;5048253;28;8892;-76
2023/08/13 04:50:24;;;;;;;;;24.60;23.00;;;;;18.75;45.82;99801.50;5048182;28;9557;-74
2023/08/13 04:52:53;;;;;;;;;28.20;26.80;;;;;18.78;44.85;99804.94;5066230;28;8862;-76
2023/08/13 04:55:22;;;;;;;;;26.20;26.00;;;;;18.84;45.26;99805.53;5044524;28;8878;-75
2023/08/13 04:57:51;;;;;;;;;30.00;27.40;;;;;18.93;44.23;99809.50;5045837;28;9607;-74
2023/08/13 05:00:20;;;;;;;;;17.20;15.60;;;;;18.98;43.76;99812.81;5028946;28;8842;-74
2023/08/13 05:02:50;;;;;;;;;27.20;25.20;;;;;19.39;42.63;99806.25;5044322;28;8857;-74
2023/08/13 05:05:19;;;;;;;;;26.60;25.60;;;;;19.43;42.68;99807.81;5012267;28;8914;-72
2023/08/13 05:07:48;;;;;;;;;27.00;25.20;;;;;19.53;42.79;99814.38;5045536;28;8944;-75
2023/08/13 05:10:17;;;;;;;;;78.00;67.50;;;;;19.63;41.43;99814.75;5028838;28;8849;-74
2023/08/13 05:12:47;;;;;;;;;60.25;49.50;;;;;19.64;41.22;99813.81;5062330;28;10434;-75
2023/08/13 05:15:15;;;;;;;;;33.50;30.75;;;;;19.69;41.92;99814.44;5064252;28;8884;-74
2023/08/13 05:17:44;;;;;;;;;30.25;30.25;;;;;19.41;42.56;99821.22;5065138;28;8890;-73
2023/08/13 05:20:15;;;;;;;;;36.25;30.25;;;;;19.32;42.32;99827.88;5048645;28;8867;-77
2023/08/13 05:22:44;;;;;;;;;29.25;28.00;;;;;19.29;42.26;99825.41;5032579;28;8910;-77
2023/08/13 05:25:13;;;;;;;;;25.00;25.00;;;;;19.32;42.26;99819.03;5048798;28;8862;-75
2023/08/13 05:27:42;;;;;;;;;25.40;25.20;;;;;19.38;42.17;99820.50;5066660;28;9575;-74
2023/08/13 05:30:11;;;;;;;;;30.20;27.40;;;;;19.45;41.14;99822.78;5094281;28;8878;-74
2023/08/13 05:32:41;;;;;;;;;26.40;26.40;;;;;19.60;41.17;99820.25;5044806;28;8860;-75
2023/08/13 05:35:10;;;;;;;;;47.25;39.75;;;;;19.67;40.64;99821.66;5045546;28;9037;-74
2023/08/13 05:37:41;;;;;;;;;42.50;35.75;;;;;19.57;40.71;99823.94;5062544;28;8867;-74
2023/08/13 05:40:10;;;;;;;;;64.00;51.00;;;;;19.78;40.60;99826.38;5045512;28;8910;-75
2023/08/13 05:42:39;;;;;;;;;51.00;43.25;;;;;19.85;40.86;99828.63;4980029;28;9234;-73
2023/08/13 05:45:09;;;;;;;;;39.25;32.25;;;;;20.00;40.17;99834.06;5045467;28;9688;-74
2023/08/13 05:47:38;;;;;;;;;30.50;30.25;;;;;20.15;39.72;99835.03;5064206;28;8967;-75
2023/08/13 05:50:08;;;;;;;;;25.40;24.60;;;;;20.23;39.47;99830.13;5066545;28;8849;-75
2023/08/13 05:52:36;;;;;;;;;30.75;28.75;;;;;20.23;39.67;99827.47;5019648;28;8876;-75
2023/08/13 05:55:07;;;;;;;;;27.00;24.80;;;;;19.92;39.78;99844.31;5069348;28;8876;-74
2023/08/13 05:57:36;;;;;;;;;25.40;23.80;;;;;19.61;41.00;99844.19;5068708;28;8861;-74
2023/08/13 06:00:09;;;;;;;;;27.20;26.20;;;;;19.43;41.34;99843.31;5069240;28;8865;-75
2023/08/13 06:02:42;;;;;;;;;22.80;22.60;;;;;19.00;43.01;99844.69;5067863;28;8845;-75
2023/08/13 06:05:11;;;;;;;;;27.40;26.40;;;;;18.94;43.40;99846.72;5080887;28;8862;-75
2023/08/13 06:07:40;;;;;;;;;27.20;25.20;;;;;18.74;44.27;99855.72;5070995;28;8978;-74
2023/08/13 06:10:10;;;;;;;;;24.80;24.00;;;;;18.93;44.05;99852.13;5071509;28;8958;-75
2023/08/13 06:12:39;;;;;;;;;26.60;25.80;;;;;18.94;44.73;99845.88;5071048;28;8850;-76
2023/08/13 06:15:09;;;;;;;;;30.25;30.00;;;;;19.03;44.73;99847.22;5098371;28;8842;-73
2023/08/13 06:17:38;;;;;;;;;32.75;29.25;;;;;19.40;44.02;99847.94;5092687;28;8858;-73
2023/08/13 06:20:09;;;;;;;;;30.60;27.40;;;;;19.74;43.62;99846.19;5106215;28;8889;-72
2023/08/13 06:22:38;;;;;;;;;25.60;25.60;;;;;20.21;43.24;99850.69;5093368;28;9525;-74
2023/08/13 06:25:07;;;;;;;;;28.80;27.40;;;;;20.45;42.57;99848.47;5111649;28;8836;-72
2023/08/13 06:27:38;;;;;;;;;28.80;28.00;;;;;20.86;41.52;99850.56;5075320;28;8855;-74
2023/08/13 06:30:08;;;;;;;;;26.80;26.40;;;;;21.14;40.74;99852.44;5111302;28;8836;-72
2023/08/13 06:32:39;;;;;;;;;27.75;27.75;;;;;21.42;40.42;99861.47;5111303;28;8832;-72
2023/08/13 06:35:08;;;;;;;;;23.40;23.40;;;;;21.70;39.55;99851.78;5110157;28;8832;-72
2023/08/13 06:37:37;;;;;;;;;25.00;23.20;;;;;21.89;39.36;99855.00;5075098;28;8844;-73
2023/08/13 06:40:26;;;;;;;;;24.80;24.60;;;;;22.17;38.37;99858.59;5111228;28;8948;-74
2023/08/13 06:42:56;;;;;;;;;22.80;22.60;;;;;22.39;38.01;99866.09;5075604;28;8855;-71
2023/08/13 06:45:27;;;;;;;;;17.80;17.60;;;;;22.51;37.67;99865.31;5111228;28;9022;-72
2023/08/13 06:47:56;;;;;;;;;39.50;35.00;;;;;22.66;37.18;99865.28;5096480;28;8859;-76
2023/08/13 06:50:25;;;;;;;;;70.00;58.67;;;;;22.80;36.86;99868.72;5104127;28;8966;-71
2023/08/13 06:52:55;;;;;;;;;27.00;25.80;;;;;22.96;36.70;99865.91;5068524;28;9385;-72
2023/08/13 06:55:23;;;;;;;;;24.00;22.80;;;;;23.09;36.19;99857.03;5099719;28;8846;-72
2023/08/13 06:57:52;;;;;;;;;22.80;22.40;;;;;23.16;35.93;99861.00;5104828;28;8840;-73
2023/08/13 07:00:22;;;;;;;;;20.60;19.20;;;;;23.21;35.46;99868.75;5087505;28;8874;-73
2023/08/13 07:03:07;;;;;;;;;23.20;21.60;;;;;23.41;35.14;99864.66;5042369;28;8872;-72
2023/08/13 07:05:36;;;;;;;;;27.00;26.20;;;;;23.46;34.67;99868.75;5084423;28;8843;-73
2023/08/13 07:08:05;;;;;;;;;21.80;21.20;;;;;23.54;34.62;99865.56;5082103;28;8853;-69
2023/08/13 07:10:34;;;;;;;;;82.75;77.50;;;;;23.52;34.66;99867.50;5101691;28;8928;-70
2023/08/13 07:13:03;;;;;;;;;58.75;49.00;;;;;23.58;34.74;99867.94;5091756;28;10507;-71
2023/08/13 07:15:34;;;;;;;;;34.75;31.25;;;;;23.72;34.85;99871.47;5109940;28;9639;-70
2023/08/13 07:18:03;;;;;;;;;27.60;25.40;;;;;23.82;34.74;99874.34;5110151;28;8840;-69
2023/08/13 07:20:31;;;;;;;;;27.60;25.40;;;;;23.92;34.79;99870.03;5057572;28;8890;-71
2023/08/13 07:23:00;;;;;;;;;27.80;26.60;;;;;24.05;34.25;99867.31;5088846;28;8930;-70
2023/08/13 07:25:29;;;;;;;;;25.20;24.60;;;;;24.16;34.35;99868.28;5104139;28;8872;-71
2023/08/13 07:27:58;;;;;;;;;25.20;24.80;;;;;24.23;34.11;99871.41;5089834;28;8852;-71
2023/08/13 07:30:26;;;;;;;;;29.50;27.50;;;;;24.23;33.76;99874.09;5089233;28;8853;-71
2023/08/13 07:32:57;;;;;;;;;26.80;24.20;;;;;24.41;34.23;99876.38;5099476;28;8900;-69
2023/08/13 07:35:26;;;;;;;;;50.00;42.50;;;;;24.49;34.27;99873.97;5092111;28;8838;-71
2023/08/13 07:37:55;;;;;;;;;26.80;26.00;;;;;24.47;33.99;99876.78;5072106;28;8857;-72
2023/08/13 07:40:23;;;;;;;;;33.25;31.25;;;;;24.51;34.28;99869.38;5095407;28;8856;-70
2023/08/13 07:42:52;;;;;;;;;27.60;26.60;;;;;24.50;34.47;99868.47;5088770;28;8880;-71
2023/08/13 07:45:21;;;;;;;;;25.60;25.40;;;;;24.59;34.27;99874.16;5079028;28;8850;-74
2023/08/13 07:47:50;;;;;;;;;25.00;24.00;;;;;24.66;34.05;99862.84;5091155;28;8940;-72
2023/08/13 07:50:20;;;;;;;;;27.50;27.00;;;;;24.72;33.71;99864.22;5088999;28;8907;-70
2023/08/13 07:52:50;;;;;;;;;26.40;25.20;;;;;24.78;34.00;99868.31;5101557;28;8859;-70
2023/08/13 07:55:18;;;;;;;;;30.25;29.75;;;;;24.81;34.04;99868.03;5100453;28;8864;-71
2023/08/13 07:57:48;;;;;;;;;26.25;26.25;;;;;24.89;34.33;99868.34;5073807;28;9621;-71
2023/08/13 08:00:17;;;;;;;;;27.00;25.75;;;;;24.26;34.83;99867.63;5091137;28;8846;-70
2023/08/13 08:02:46;;;;;;;;;27.75;27.75;;;;;24.50;34.38;99871.19;5067584;28;8849;-69
2023/08/13 08:05:16;;;;;;;;;24.40;22.60;;;;;24.63;33.40;99865.75;5088889;28;8949;-71
2023/08/13 08:07:47;;;;;;;;;36.75;32.75;;;;;24.75;33.13;99850.56;5088299;28;8857;-74
2023/08/13 08:10:15;;;;;;;;;26.75;26.00;;;;;24.72;34.04;99859.69;5100011;28;10092;-72
2023/08/13 08:12:44;;;;;;;;;27.75;27.75;;;;;24.95;33.50;99862.50;5052168;28;8907;-71
2023/08/13 08:15:13;;;;;;;;;26.75;26.75;;;;;25.04;33.85;99866.28;5092689;28;8980;-71
2023/08/13 08:17:42;;;;;;;;;25.75;25.00;;;;;25.12;33.78;99862.03;5100569;28;8852;-72
2023/08/13 08:20:12;;;;;;;;;25.75;25.25;;;;;25.21;33.51;99854.22;5097328;28;8862;-79
2023/08/13 08:22:42;;;;;;;;;29.25;26.00;;;;;25.33;32.15;99855.16;5095675;28;8937;-79
2023/08/13 08:25:13;;;;;;;;;26.50;26.00;;;;;25.48;31.97;99856.66;5089693;28;8854;-79
2023/08/13 08:27:42;;;;;;;;;25.75;24.00;;;;;25.31;32.14;99860.63;5089930;28;8860;-78
2023/08/13 08:30:11;;;;;;;;;25.80;24.60;;;;;25.41;32.44;99860.78;5087345;28;8919;-81
2023/08/13 08:32:40;;;;;;;;;20.20;19.60;;;;;25.54;31.81;99858.00;5109981;28;8847;-79
2023/08/13 08:35:09;;;;;;;;;20.80;19.00;;;;;25.57;29.81;99850.53;5124797;28;8858;-79
2023/08/13 08:37:38;;;;;;;;;18.60;18.60;;;;;25.61;29.62;99862.78;5067820;28;8875;-78
2023/08/13 08:40:08;;;;;;;;;15.00;15.00;;;;;25.66;30.12;99857.00;5110446;28;8860;-79
2023/08/13 08:42:39;;;;;;;;;18.80;18.80;;;;;25.79;30.68;99856.88;5109203;28;8852;-78
2023/08/13 08:45:10;;;;;;;;;33.00;31.75;;;;;25.87;29.27;99862.50;5109780;28;8827;-78
2023/08/13 08:47:41;;;;;;;;;57.00;46.25;;;;;25.95;28.80;99860.09;5097370;28;8864;-77
2023/08/13 08:50:12;;;;;;;;;16.80;16.40;;;;;25.51;29.36;99854.56;5089227;28;8866;-79
2023/08/13 08:52:42;;;;;;;;;18.80;18.80;;;;;25.16;28.92;99857.28;5053809;28;8834;-78
2023/08/13 08:55:11;;;;;;;;;15.60;15.60;;;;;25.15;29.71;99854.72;5089264;28;8865;-79
2023/08/13 08:57:41;;;;;;;;;17.60;17.60;;;;;25.26;29.09;99852.88;5088546;28;8959;-79
2023/08/13 09:00:11;;;;;;;;;15.60;15.60;;;;;25.41;28.27;99841.94;5054030;28;8862;-78
2023/08/13 09:02:41;;;;;;;;;22.00;22.00;;;;;25.54;27.44;99856.16;5041024;28;8937;-78
2023/08/13 09:05:10;;;;;;;;;16.00;16.00;;;;;25.64;26.74;99850.88;5090750;28;8839;-79
2023/08/13 09:07:42;;;;;;;;;12.00;12.00;;;;;25.77;26.86;99846.22;5050183;28;9591;-79
2023/08/13 09:10:11;;;;;;;;;14.40;14.40;;;;;25.85;26.42;99845.63;5071164;28;8854;-79
2023/08/13 09:12:43;;;;;;;;;14.40;13.80;;;;;25.78;26.47;99847.97;5094207;28;8882;-78
2023/08/13 09:15:13;;;;;;;;;14.60;14.60;;;;;25.91;26.48;99837.09;5102488;28;8900;-78
2023/08/13 09:17:42;;;;;;;;;12.80;12.80;;;;;25.83;25.50;99836.81;5101678;28;8842;-78
2023/08/13 09:20:18;;;;;;;;;19.00;17.80;;;;;25.94;26.81;99841.38;5076235;28;8855;-79
2023/08/13 09:22:48;;;;;;;;;56.25;46.00;;;;;25.87;25.55;99839.16;5107454;28;8863;-79
2023/08/13 09:25:18;;;;;;;;;10.00;10.00;;;;;26.00;25.88;99832.78;5091234;28;8855;-79
2023/08/13 09:27:48;;;;;;;;;13.00;13.00;;;;;26.07;25.23;99834.84;5094774;28;8847;-79
2023/08/13 09:30:27;;;;;;;;;13.00;12.00;;;;;26.12;25.74;99834.50;5094084;28;8878;-78
2023/08/13 09:32:57;;;;;;;;;14.00;14.00;;;;;25.99;26.71;99839.16;5092551;28;8850;-80
2023/08/13 09:35:27;;;;;;;;;13.60;13.60;;;;;26.15;25.52;99833.38;5074678;28;8977;-79
2023/08/13 09:37:56;;;;;;;;;11.80;11.80;;;;;26.07;26.59;99834.00;5091754;28;8845;-79
2023/08/13 09:40:25;;;;;;;;;13.20;13.20;;;;;26.12;26.30;99829.09;5092573;28;9057;-77
2023/08/13 09:42:57;;;;;;;;;9.40;9.40;;;;;26.16;24.99;99825.16;5074824;28;9003;-78
2023/08/13 09:45:28;;;;;;;;;11.00;10.80;;;;;25.75;25.68;99828.50;5094447;28;8841;-78
2023/08/13 09:48:00;;;;;;;;;9.20;9.20;;;;;25.77;24.67;99824.69;5111392;28;8899;-79
2023/08/13 09:50:34;;;;;;;;;24.25;23.50;;;;;25.83;24.88;99826.91;5112646;28;8835;-79
2023/08/13 09:53:06;;;;;;;;;11.80;11.80;;;;;25.80;25.29;99824.47;5073243;28;8860;-78
2023/08/13 09:55:49;;;;;;;;;19.40;17.00;;;;;25.67;23.69;99823.72;5074126;28;8849;-79
2023/08/13 09:58:20;;;;;;;;;10.00;10.00;;;;;25.71;24.11;99817.97;5032494;28;8858;-79
2023/08/13 10:00:51;;;;;;;;;11.20;11.20;;;;;25.75;24.24;99826.66;5039679;28;8889;-80
2023/08/13 10:03:20;;;;;;;;;9.60;9.60;;;;;25.67;23.73;99827.28;5037628;28;8991;-80
2023/08/13 10:05:50;;;;;;;;;7.80;7.40;;;;;25.74;23.80;99822.28;5049061;28;8818;-78
2023/08/13 10:08:19;;;;;;;;;8.60;8.60;;;;;25.84;24.08;99819.69;5069889;28;8856;-79
2023/08/13 10:10:49;;;;;;;;;8.00;8.00;;;;;25.73;23.84;99822.38;5081771;28;8871;-78
2023/08/13 10:13:20;;;;;;;;;11.80;11.80;;;;;25.90;24.30;99829.97;5031836;28;8876;-79
2023/08/13 10:15:50;;;;;;;;;11.40;11.40;;;;;25.73;23.90;99827.78;5068893;28;8851;-80
2023/08/13 10:18:19;;;;;;;;;9.00;9.00;;;;;25.85;23.50;99821.38;5028771;28;8840;-82
2023/08/13 10:20:48;;;;;;;;;13.40;10.80;;;;;25.79;24.04;99827.28;5028455;28;8872;-70
2023/08/13 10:23:18;;;;;;;;;7.40;7.40;;;;;25.88;23.96;99813.91;5010842;28;8953;-71
2023/08/13 10:25:53;;;;;;;;;9.40;8.20;;;;;26.08;24.51;99823.09;5026519;28;8860;-70
2023/08/13 10:28:25;;;;;;;;;10.60;10.60;;;;;26.18;24.39;99827.75;5022963;28;8852;-74
2023/08/13 10:31:25;;;;;;;;;12.40;11.40;;;;;26.21;23.51;99819.38;5018356;28;8940;-75
2023/08/13 10:34:08;;;;;;;;;7.80;7.80;;;;;26.38;23.24;99809.91;5067454;28;8859;-74
2023/08/13 10:36:45;;;;;;;;;10.80;10.80;;;;;26.35;23.96;99810.19;5066449;28;8839;-75
2023/08/13 10:39:36;;;;;;;;;12.60;12.00;;;;;26.27;24.56;99814.38;5066750;28;8852;-78
2023/08/13 10:42:44;;;;;;;;;12.40;12.00;;;;;26.43;25.36;99813.94;5026827;28;8894;-75
2023/08/13 10:45:17;;;;;;;;;13.80;13.20;;;;;26.34;25.82;99813.84;5025127;28;8860;-76
2023/08/13 10:47:47;;;;;;;;;17.00;13.00;;;;;26.40;25.16;99813.31;5026568;28;8871;-77
2023/08/13 10:50:27;;;;;;;;;13.20;13.20;;;;;26.50;25.20;99810.78;5055353;28;8971;-76
2023/08/13 10:53:03;;;;;;;;;13.00;13.00;;;;;26.61;24.80;99806.19;5046746;28;8869;-75
2023/08/13 10:55:34;;;;;;;;;11.40;10.80;;;;;26.58;25.15;99811.81;5046470;28;8831;-77
2023/08/13 10:58:04;;;;;;;;;13.20;11.20;;;;;26.37;24.84;99813.59;5066553;28;9627;-77
2023/08/13 11:00:42;;;;;;;;;12.20;12.20;;;;;26.57;24.88;99807.44;5063030;28;9609;-77
2023/08/13 11:03:19;;;;;;;;;11.80;11.80;;;;;26.69;24.48;99805.53;5056762;28;8859;-78
2023/08/13 11:05:50;;;;;;;;;15.00;15.00;;;;;26.67;24.86;99804.81;5060128;28;8934;-78
2023/08/13 11:08:20;;;;;;;;;10.80;10.80;;;;;26.82;24.68;99811.59;5054403;28;8844;-77
2023/08/13 11:11:07;;;;;;;;;14.20;14.20;;;;;27.01;25.38;99797.38;5053935;28;8973;-75
2023/08/13 11:13:37;;;;;;;;;12.00;12.00;;;;;27.20;25.66;99802.06;5023944;28;8889;-77
2023/08/13 11:16:07;;;;;;;;;14.20;14.20;;;;;27.19;24.93;99797.66;5056910;28;8914;-75
2023/08/13 11:18:37;;;;;;;;;11.60;11.60;;;;;27.29;24.50;99794.13;5076583;28;8856;-75
2023/08/13 11:21:06;;;;;;;;;15.00;14.00;;;;;27.43;24.87;99799.19;5053872;28;8916;-75
2023/08/13 11:23:35;;;;;;;;;16.40;16.40;;;;;27.61;25.93;99796.75;5066016;28;8851;-73
2023/08/13 11:26:05;;;;;;;;;15.00;14.20;;;;;27.81;24.95;99792.25;5105797;28;8838;-74
2023/08/13 11:28:34;;;;;;;;;12.40;12.40;;;;;28.02;24.32;99789.47;5089109;28;8927;-74
2023/08/13 11:31:03;;;;;;;;;13.20;12.40;;;;;28.10;24.03;99786.94;5098039;28;8898;-68
2023/08/13 11:33:33;;;;;;;;;14.20;14.00;;;;;28.21;24.37;99785.97;5090567;28;8839;-66
2023/08/13 11:36:02;;;;;;;;;13.20;13.20;;;;;27.89;23.63;99783.47;5089394;28;8857;-66
2023/08/13 11:38:31;;;;;;;;;15.00;13.60;;;;;28.17;24.16;99782.69;5037862;28;9579;-65
2023/08/13 11:41:00;;;;;;;;;16.20;14.40;;;;;28.41;23.44;99784.97;5089039;28;8986;-65
2023/08/13 11:43:29;;;;;;;;;15.00;14.00;;;;;28.63;23.09;99777.59;5088968;28;8841;-67
2023/08/13 11:45:58;;;;;;;;;14.00;13.20;;;;;28.91;22.34;99775.00;5069852;28;8857;-63
2023/08/13 11:48:30;;;;;;;;;13.20;13.20;;;;;29.03;22.01;99776.56;5068305;28;8873;-65
2023/08/13 11:51:13;;;;;;;;;12.20;10.80;;;;;29.23;21.94;99788.19;5103644;28;8952;-65
2023/08/13 11:53:50;;;;;;;;;12.60;12.60;;;;;29.31;21.95;99780.22;5100239;28;8913;-63